• °C
  • Pobieranie danych...
wx

PRINT OUT SECTION, show »

METAR EPCE 261800Z 28009KT 9999 BKN005 OVC015 M00/M01
Q1005 RMK M001 095 8/5=

METAR EPDA 261800Z 32013KT 290V350 9999 BKN025 02/M02
Q1008 RMK 023 076 7/7=

METAR EPDE 261800Z 26008KT 9999 -SN BKN025 OVC034 00/M02 Q1007 RMK
001 085 8/6=

METAR EPIR 261800Z 25012KT 9999 FEW013 BKN025 M01/M02 Q1008 RMK M006
087 5/2=

METAR EPKS 261800Z 29009KT 9000 -SN BKN011 OVC032 01/01 Q1010 RMK
005 100 8/5=

METAR EPLK 261800Z 29010KT 9999 -SN BKN013 OVC022 00/00 Q1009 RMK
002 100 8/5=

METAR EPLY 261800Z 28010KT 9999 BKN030 00/M03 Q1008 RMK 001 079 6/6=

METAR EPMB 261800Z 25012KT 9999 SCT020 OVC040 01/M02 Q1005 RMK 007
085 8/3=

METAR EPMI 261800Z 28010KT 3000 BR BKN006 M00/M00 Q1009 RMK M002 100
7/7=

METAR EPMM 261800Z 28014KT 9999 OVC014 00/M02 Q1005 RMK 003 085 8/8=

METAR EPNA 261800Z NIL=

METAR EPOK 261800Z 29010KT 9999 -SN OVC021 01/M01
Q1005 RMK 005 090 8/8=

METAR EPPR 261800Z 24006KT 9999 SCT019 BKN055 01/M03 Q1005 RMK 006
078 7/3=

METAR EPPW 261800Z 28012KT 9999 SCT016 BKN027 00/M01 Q1009
RMK 003 095 7/3=

METAR EPRA 261800Z 28012KT 7000 -SN SCT020 BKN043 00/M02 Q1008 RMK
001 087 7/4=

METAR EPSN 261800Z 27010KT 6000 BKN007 00/00 Q1008 RMK 003 100 7/7=

METAR EPTM 261800Z 28008KT 9999 BKN014 OVC055 01/M02 Q1008 RMK 005
080 8/5=



IMGW-PIB Sites